createdAt,value
2018-11-20T18:53:12.855Z,46.10
2018-11-20T18:55:17.057Z,46.60
2018-11-20T18:57:21.216Z,46.00
2018-11-20T18:59:25.304Z,46.20
2018-11-20T19:01:29.372Z,46.10
2018-11-20T19:03:33.456Z,46.00
2018-11-20T19:05:37.526Z,46.40
2018-11-20T19:07:41.614Z,46.30
2018-11-20T19:09:45.690Z,45.80
2018-11-20T19:15:23.894Z,28.80
2018-11-20T19:17:28.016Z,29.20
2018-11-20T19:19:32.093Z,31.60
2018-11-20T19:21:36.181Z,33.40
2018-11-20T19:23:40.269Z,36.40
2018-11-20T19:25:44.360Z,41.80
2018-11-20T19:27:48.457Z,44.70
2018-11-20T19:29:52.565Z,48.60
2018-11-20T19:31:56.765Z,47.10
2018-11-20T19:36:04.984Z,50.70
2018-11-20T19:38:08.976Z,48.80
2018-11-20T19:40:13.137Z,51.90
2018-11-20T19:42:17.135Z,54.40
2018-11-20T19:44:21.248Z,51.30
2018-11-20T19:46:25.314Z,51.70
2018-11-20T19:48:29.473Z,55.00
2018-11-20T19:50:33.526Z,57.30
2018-11-20T19:52:37.616Z,64.40
2018-11-20T19:54:41.666Z,61.80
2018-11-20T19:56:45.739Z,58.30
2018-11-20T19:58:49.820Z,59.00
2018-11-20T20:00:53.924Z,59.30
2018-11-20T20:02:58.093Z,60.60
2018-11-20T20:05:02.073Z,59.10
2018-11-20T20:07:06.144Z,55.50
2018-11-20T20:09:10.233Z,55.10
2018-11-20T20:11:14.335Z,55.50
2018-11-20T20:13:18.399Z,57.70
2018-11-20T20:15:22.490Z,60.70
2018-11-20T20:17:26.581Z,61.00
2018-11-20T20:19:30.672Z,58.80
2018-11-20T20:21:34.747Z,61.90
2018-11-20T20:23:38.801Z,62.90
2018-11-20T20:25:42.902Z,63.20
2018-11-20T20:27:46.953Z,58.20
2018-11-20T20:29:51.020Z,64.90
2018-11-20T20:31:55.082Z,67.80
2018-11-20T20:33:59.153Z,65.60
2018-11-20T20:36:03.242Z,61.10
2018-11-20T20:38:07.311Z,59.80
2018-11-20T20:40:11.390Z,63.00
2018-11-20T20:42:15.465Z,59.70
2018-11-20T20:44:19.582Z,59.40
2018-11-20T20:46:24.938Z,63.70
2018-11-20T20:48:28.996Z,57.20
2018-11-20T20:50:33.077Z,58.00
2018-11-20T20:52:37.148Z,56.10
2018-11-20T20:54:41.202Z,60.20
2018-11-20T20:56:45.287Z,62.10
2018-11-20T20:58:49.378Z,64.70
2018-11-20T21:00:53.493Z,66.50
2018-11-20T21:02:57.581Z,67.20
2018-11-20T21:05:01.659Z,57.10
2018-11-20T21:07:05.750Z,58.80
2018-11-20T21:09:09.818Z,59.20
2018-11-20T21:11:13.869Z,60.20
2018-11-20T21:13:17.948Z,57.80
2018-11-20T21:15:22.004Z,57.70
2018-11-20T21:17:26.115Z,60.50
2018-11-20T21:19:30.196Z,61.70
2018-11-20T21:21:34.264Z,59.30
2018-11-20T21:23:38.363Z,60.30
2018-11-20T21:25:42.413Z,62.50
2018-11-20T21:27:46.484Z,66.90
2018-11-20T21:29:50.561Z,63.00
2018-11-20T21:31:54.634Z,59.00
2018-11-20T21:33:58.713Z,57.00
2018-11-20T21:36:02.786Z,57.50
2018-11-20T21:38:06.871Z,59.90
2018-11-20T21:40:10.953Z,58.50
2018-11-20T21:42:15.013Z,59.10
2018-11-20T21:44:19.098Z,64.20
2018-11-20T21:46:23.157Z,63.30
2018-11-20T21:48:27.227Z,61.00
2018-11-20T21:50:31.299Z,64.20
2018-11-20T21:52:35.398Z,62.10
2018-11-20T21:54:39.463Z,61.70
2018-11-20T21:56:43.533Z,56.70
2018-11-20T21:58:47.618Z,55.70
2018-11-20T22:00:51.711Z,61.10
2018-11-20T22:02:55.768Z,58.60
2018-11-20T22:04:59.853Z,61.30
2018-11-20T22:07:03.950Z,64.40
2018-11-20T22:09:08.013Z,59.70
2018-11-20T22:11:12.089Z,60.10
2018-11-20T22:13:16.141Z,62.80
2018-11-20T22:15:20.218Z,62.50
2018-11-20T22:17:24.288Z,62.90
2018-11-20T22:19:28.377Z,63.00
2018-11-20T22:21:32.449Z,63.40
2018-11-20T22:23:36.502Z,58.10
2018-11-20T22:25:40.601Z,60.60
2018-11-20T22:27:44.661Z,64.30
2018-11-20T22:29:48.735Z,67.20
2018-11-20T22:31:52.800Z,58.00
2018-11-20T22:33:56.872Z,61.30
2018-11-20T22:36:00.963Z,63.60
2018-11-20T22:38:05.041Z,67.50
2018-11-20T22:40:09.108Z,67.40
2018-11-20T22:42:13.171Z,61.30
2018-11-20T22:44:17.243Z,64.70
2018-11-20T22:46:21.345Z,58.30
2018-11-20T22:48:25.428Z,57.70
2018-11-20T22:50:29.493Z,63.80
2018-11-20T22:52:33.543Z,68.20
2018-11-20T22:54:37.614Z,64.00
2018-11-20T22:56:41.671Z,67.90
2018-11-20T22:58:45.753Z,61.70
2018-11-20T23:00:49.814Z,59.80
2018-11-20T23:02:53.907Z,58.10
2018-11-20T23:04:57.321Z,59.80
2018-11-20T23:07:01.384Z,58.60
2018-11-20T23:09:05.504Z,58.50
2018-11-20T23:11:09.560Z,58.20
2018-11-20T23:13:13.626Z,58.10
2018-11-20T23:15:17.717Z,59.60
2018-11-20T23:17:22.535Z,67.20
2018-11-20T23:19:26.624Z,63.30
2018-11-20T23:21:30.729Z,63.30
2018-11-20T23:23:34.790Z,61.00
2018-11-20T23:25:38.880Z,67.60
2018-11-20T23:27:42.935Z,67.50
2018-11-20T23:29:47.019Z,58.90
2018-11-20T23:31:51.078Z,61.80
2018-11-20T23:33:55.141Z,64.70
2018-11-20T23:35:59.229Z,69.00
2018-11-20T23:38:03.302Z,74.10
2018-11-20T23:40:07.382Z,70.50
2018-11-20T23:42:11.444Z,62.40
2018-11-20T23:44:15.492Z,61.60
2018-11-20T23:46:19.563Z,60.30
2018-11-20T23:48:23.651Z,62.40
2018-11-20T23:50:27.715Z,69.60
2018-11-20T23:52:31.789Z,67.00
2018-11-20T23:54:35.865Z,74.40
2018-11-20T23:56:39.933Z,65.10
2018-11-20T23:58:44.015Z,60.80
